createdAt,value
2018-08-12T00:02:02.606Z,3.93
2018-08-12T00:04:32.092Z,4.00
2018-08-12T00:07:00.714Z,4.73
2018-08-12T00:09:30.289Z,4.07
2018-08-12T00:11:59.733Z,4.37
2018-08-12T00:14:28.806Z,4.00
2018-08-12T00:16:57.503Z,3.90
2018-08-12T00:19:26.151Z,3.97
2018-08-12T00:21:54.684Z,3.93
2018-08-12T00:24:23.208Z,4.57
2018-08-12T00:26:51.785Z,4.43
2018-08-12T00:29:20.505Z,4.87
2018-08-12T00:31:48.934Z,4.50
2018-08-12T00:34:17.464Z,4.10
2018-08-12T00:36:46.040Z,4.70
2018-08-12T00:39:14.534Z,4.20
2018-08-12T00:41:43.012Z,4.40
2018-08-12T00:44:11.729Z,4.00
2018-08-12T00:46:40.284Z,3.70
2018-08-12T00:49:08.729Z,4.10
2018-08-12T00:51:37.317Z,4.30
2018-08-12T00:54:05.999Z,4.13
2018-08-12T00:56:34.729Z,4.40
2018-08-12T00:59:03.127Z,3.90
2018-08-12T01:01:31.601Z,4.20
2018-08-12T01:04:00.020Z,3.97
2018-08-12T01:06:28.429Z,3.97
2018-08-12T01:08:56.872Z,4.10
2018-08-12T01:11:25.345Z,3.70
2018-08-12T01:13:53.740Z,4.50
2018-08-12T01:16:22.195Z,4.13
2018-08-12T01:18:50.593Z,4.53
2018-08-12T01:21:19.038Z,4.00
2018-08-12T01:23:47.509Z,3.60
2018-08-12T01:26:15.957Z,4.20
2018-08-12T01:28:44.403Z,4.50
2018-08-12T01:31:12.915Z,4.40
2018-08-12T01:33:41.336Z,4.37
2018-08-12T01:36:09.766Z,4.17
2018-08-12T01:38:38.271Z,4.57
2018-08-12T01:41:07.279Z,3.80
2018-08-12T01:43:35.718Z,4.67
2018-08-12T01:46:04.176Z,3.73
2018-08-12T01:48:32.552Z,4.23
2018-08-12T01:51:00.974Z,4.07
2018-08-12T01:53:29.491Z,3.83
2018-08-12T01:55:57.885Z,4.33
2018-08-12T01:58:26.409Z,3.90
2018-08-12T02:00:54.760Z,3.80
2018-08-12T02:03:23.272Z,3.93
2018-08-12T02:05:51.692Z,4.03
2018-08-12T02:08:20.164Z,4.27
2018-08-12T02:10:48.584Z,4.60
2018-08-12T02:13:17.011Z,4.20
2018-08-12T02:15:45.416Z,4.10
2018-08-12T02:18:13.869Z,3.97
2018-08-12T02:20:42.401Z,3.83
2018-08-12T02:23:10.851Z,4.20
2018-08-12T02:25:39.303Z,4.00
2018-08-12T02:28:07.786Z,4.00
2018-08-12T02:30:36.259Z,4.67
2018-08-12T02:33:04.756Z,3.80
2018-08-12T02:35:33.241Z,4.30
2018-08-12T02:38:01.798Z,3.93
2018-08-12T02:40:30.299Z,4.00
2018-08-12T02:42:58.800Z,4.13
2018-08-12T02:45:27.219Z,4.20
2018-08-12T02:47:55.594Z,4.40
2018-08-12T02:50:24.054Z,4.27
2018-08-12T02:52:52.538Z,4.13
2018-08-12T02:55:20.963Z,4.10
2018-08-12T02:57:49.451Z,4.17
2018-08-12T03:00:17.950Z,4.10
2018-08-12T03:02:46.393Z,3.90
2018-08-12T03:05:14.821Z,4.10
2018-08-12T03:07:43.233Z,3.83
2018-08-12T03:10:11.797Z,4.40
2018-08-12T03:12:40.316Z,4.73
2018-08-12T03:15:10.149Z,3.90
2018-08-12T03:17:38.769Z,3.93
2018-08-12T03:20:09.170Z,4.30
2018-08-12T03:22:37.653Z,4.97
2018-08-12T03:25:07.089Z,4.43
2018-08-12T03:27:35.476Z,4.10
2018-08-12T03:30:04.996Z,4.60
2018-08-12T03:32:33.309Z,4.53
2018-08-12T03:35:01.744Z,4.43
2018-08-12T03:37:30.159Z,4.40
2018-08-12T03:39:58.575Z,4.40
2018-08-12T03:42:27.040Z,4.20
2018-08-12T03:44:55.449Z,4.47
2018-08-12T03:47:23.904Z,4.40
2018-08-12T03:49:52.306Z,4.10
2018-08-12T03:52:20.748Z,4.80
2018-08-12T03:54:49.209Z,4.00
2018-08-12T03:57:17.737Z,4.63
2018-08-12T03:59:46.274Z,4.30
2018-08-12T04:02:14.793Z,4.30
2018-08-12T04:04:43.287Z,4.40
2018-08-12T04:07:11.719Z,4.30
2018-08-12T04:09:40.169Z,4.00
2018-08-12T04:12:08.590Z,4.23
2018-08-12T04:14:37.020Z,5.30
2018-08-12T04:17:05.396Z,4.33
2018-08-12T04:19:33.798Z,4.73
2018-08-12T04:22:02.383Z,4.90
2018-08-12T04:24:30.905Z,5.03
2018-08-12T04:26:59.398Z,5.10
2018-08-12T04:29:27.794Z,5.10
2018-08-12T04:31:56.241Z,4.67
2018-08-12T04:34:24.660Z,4.40
2018-08-12T04:36:53.092Z,4.47
2018-08-12T04:39:21.567Z,4.87
2018-08-12T04:41:50.104Z,4.97
2018-08-12T04:44:18.574Z,4.23
2018-08-12T04:46:47.100Z,4.40
2018-08-12T04:49:15.552Z,4.53
2018-08-12T04:51:44.097Z,5.07
2018-08-12T04:54:12.553Z,4.60
2018-08-12T04:56:41.100Z,4.30
2018-08-12T04:59:09.507Z,4.53
2018-08-12T05:01:37.917Z,4.20
2018-08-12T05:04:06.405Z,5.50
2018-08-12T05:06:34.838Z,4.60
2018-08-12T05:09:03.344Z,5.00
2018-08-12T05:11:31.848Z,4.93
2018-08-12T05:14:00.361Z,4.83
2018-08-12T05:16:28.805Z,4.67
2018-08-12T05:18:57.296Z,4.87
2018-08-12T05:21:25.864Z,4.20
2018-08-12T05:23:54.377Z,4.80
2018-08-12T05:26:22.863Z,5.17
2018-08-12T05:28:52.113Z,4.90
2018-08-12T05:31:56.178Z,5.40
2018-08-12T05:34:24.648Z,5.07
2018-08-12T05:36:53.105Z,5.30
2018-08-12T05:39:21.586Z,5.57
2018-08-12T05:41:49.992Z,4.83
2018-08-12T05:44:18.473Z,4.80
2018-08-12T05:46:46.960Z,5.40
2018-08-12T05:49:15.348Z,5.13
2018-08-12T05:51:43.779Z,5.07
2018-08-12T05:54:12.205Z,4.47
2018-08-12T05:56:40.737Z,4.63
2018-08-12T05:59:09.187Z,5.10
2018-08-12T06:01:37.673Z,4.70
2018-08-12T06:04:06.229Z,4.37
2018-08-12T06:06:34.725Z,5.20
2018-08-12T06:09:03.286Z,5.00
2018-08-12T06:11:31.685Z,4.37
2018-08-12T06:14:00.136Z,4.60
2018-08-12T06:16:28.574Z,5.47
2018-08-12T06:18:57.052Z,4.20
2018-08-12T06:21:25.486Z,4.90
2018-08-12T06:23:53.938Z,4.57
2018-08-12T06:26:22.418Z,4.17
2018-08-12T06:28:50.844Z,3.80
2018-08-12T06:31:19.327Z,3.97
2018-08-12T06:33:47.759Z,3.47
2018-08-12T06:36:16.313Z,4.20
2018-08-12T06:38:44.744Z,3.77
2018-08-12T06:41:13.243Z,3.20
2018-08-12T06:43:41.644Z,3.03
2018-08-12T06:46:10.080Z,3.70
2018-08-12T06:48:38.577Z,3.30
2018-08-12T06:51:07.070Z,3.20
2018-08-12T06:53:35.663Z,2.90
2018-08-12T06:56:04.228Z,3.97
2018-08-12T06:58:32.671Z,3.47
2018-08-12T07:01:01.177Z,3.77
2018-08-12T07:03:29.711Z,3.10
2018-08-12T07:05:58.195Z,3.33
2018-08-12T07:08:26.692Z,3.00
2018-08-12T07:10:55.153Z,3.70
2018-08-12T07:13:23.634Z,3.00
2018-08-12T07:15:52.207Z,3.20
2018-08-12T07:18:20.726Z,3.30
2018-08-12T07:20:49.154Z,2.83
2018-08-12T07:23:17.552Z,3.43
2018-08-12T07:25:46.036Z,2.60
2018-08-12T07:28:14.487Z,3.10
2018-08-12T07:30:43.057Z,2.67
2018-08-12T07:33:11.516Z,3.07
2018-08-12T07:35:40.049Z,3.50
2018-08-12T07:38:08.695Z,2.63
2018-08-12T07:40:37.200Z,2.80
2018-08-12T07:43:05.693Z,3.27
2018-08-12T07:45:34.148Z,3.10
2018-08-12T07:48:02.656Z,2.80
2018-08-12T07:50:31.213Z,2.57
2018-08-12T07:52:59.733Z,2.80
2018-08-12T07:55:28.181Z,2.63
2018-08-12T07:57:56.731Z,2.60
2018-08-12T08:00:25.112Z,2.83
2018-08-12T08:02:53.617Z,2.67
2018-08-12T08:05:22.075Z,2.60
2018-08-12T08:07:50.565Z,2.70
2018-08-12T08:10:19.077Z,2.60
2018-08-12T08:12:47.557Z,2.77
2018-08-12T08:15:17.771Z,2.83
2018-08-12T08:17:46.288Z,2.10
2018-08-12T08:20:15.721Z,2.43
2018-08-12T08:22:44.421Z,2.20
2018-08-12T08:25:13.256Z,2.27
2018-08-12T08:27:51.116Z,2.33
2018-08-12T08:30:19.598Z,2.20
2018-08-12T08:32:48.118Z,2.20
2018-08-12T08:35:16.617Z,2.40
2018-08-12T08:37:45.123Z,2.00
2018-08-12T08:40:15.212Z,2.10
2018-08-12T08:42:43.667Z,2.30
2018-08-12T08:45:16.548Z,2.40
2018-08-12T08:47:46.475Z,2.10
2018-08-12T08:50:15.611Z,2.50
2018-08-12T08:52:44.148Z,2.40
2018-08-12T08:55:13.857Z,2.13
2018-08-12T08:57:42.442Z,2.27
2018-08-12T09:00:13.405Z,1.90
2018-08-12T09:02:43.361Z,1.90
2018-08-12T09:05:13.171Z,2.43
2018-08-12T09:14:41.137Z,2.10
2018-08-12T09:18:39.118Z,2.00
2018-08-12T09:21:09.147Z,2.30
2018-08-12T09:23:38.840Z,2.40
2018-08-12T09:26:07.365Z,1.97
2018-08-12T09:28:35.837Z,2.30
2018-08-12T09:31:04.314Z,2.20
2018-08-12T09:33:32.732Z,2.20
2018-08-12T09:36:01.205Z,1.67
2018-08-12T09:38:29.696Z,1.97
2018-08-12T09:40:58.177Z,1.93
2018-08-12T09:43:26.762Z,1.90
2018-08-12T09:45:55.239Z,1.93
2018-08-12T09:48:23.736Z,1.80
2018-08-12T09:50:52.277Z,2.00
2018-08-12T09:53:20.721Z,1.70
2018-08-12T09:55:49.218Z,1.73
2018-08-12T09:58:17.669Z,1.90
2018-08-12T10:00:46.230Z,1.80
2018-08-12T10:03:14.693Z,2.00
2018-08-12T10:05:43.185Z,1.93
2018-08-12T10:08:11.580Z,2.00
2018-08-12T10:10:40.113Z,2.10
2018-08-12T10:13:08.693Z,1.63
2018-08-12T10:15:37.308Z,1.80
2018-08-12T10:18:05.962Z,1.70
2018-08-12T10:20:34.438Z,2.10
2018-08-12T10:23:02.974Z,1.97
2018-08-12T10:25:31.487Z,2.00
2018-08-12T10:28:00.110Z,1.70
2018-08-12T10:30:28.636Z,2.23
2018-08-12T10:32:57.227Z,1.73
2018-08-12T10:35:25.824Z,1.60
2018-08-12T10:37:54.329Z,1.60
2018-08-12T10:40:22.768Z,1.43
2018-08-12T10:42:51.495Z,1.70
2018-08-12T10:45:19.918Z,1.40
2018-08-12T10:47:48.416Z,1.37
2018-08-12T10:50:18.206Z,1.30
2018-08-12T10:52:47.609Z,1.13
2018-08-12T10:55:17.807Z,1.10
2018-08-12T10:57:46.559Z,1.27
2018-08-12T11:00:18.564Z,1.60
2018-08-12T11:02:47.591Z,1.20
2018-08-12T11:05:16.773Z,1.30
2018-08-12T11:07:46.431Z,1.30
2018-08-12T11:10:15.030Z,1.33
2018-08-12T11:12:43.552Z,1.10
2018-08-12T11:15:12.024Z,1.23
2018-08-12T11:17:41.087Z,1.60
2018-08-12T11:20:10.120Z,1.03
2018-08-12T11:22:38.801Z,1.10
2018-08-12T11:25:09.009Z,1.40
2018-08-12T11:30:30.829Z,1.37
2018-08-12T11:32:59.356Z,1.10
2018-08-12T11:35:27.920Z,1.10
2018-08-12T11:37:56.352Z,4.67
2018-08-12T11:40:24.820Z,2.73
2018-08-12T11:42:53.316Z,1.30
2018-08-12T11:45:21.829Z,1.37
2018-08-12T11:47:50.369Z,1.43
2018-08-12T11:50:19.025Z,1.47
2018-08-12T11:52:47.819Z,1.30
2018-08-12T11:55:17.689Z,1.43
2018-08-12T11:57:46.275Z,1.30
2018-08-12T12:00:16.552Z,1.40
2018-08-12T12:02:46.802Z,1.23
2018-08-12T12:05:15.344Z,1.10
2018-08-12T12:07:44.321Z,1.60
2018-08-12T12:10:16.205Z,1.50
2018-08-12T12:12:45.797Z,1.23
2018-08-12T12:15:15.102Z,1.20
2018-08-12T12:17:44.290Z,1.37
2018-08-12T12:20:13.949Z,1.10
2018-08-12T12:22:43.205Z,1.10
2018-08-12T12:25:13.952Z,0.80
2018-08-12T12:27:42.554Z,0.90
2018-08-12T12:30:14.065Z,0.80
2018-08-12T12:32:43.181Z,1.00
2018-08-12T12:35:11.804Z,1.00
2018-08-12T12:37:40.758Z,1.00
2018-08-12T12:40:11.158Z,0.97
2018-08-12T12:42:39.675Z,1.10
2018-08-12T12:45:10.176Z,1.03
2018-08-12T12:47:39.395Z,0.83
2018-08-12T12:50:15.341Z,1.10
2018-08-12T12:52:43.805Z,0.90
2018-08-12T12:55:12.454Z,1.00
2018-08-12T12:57:41.137Z,1.20
2018-08-12T13:00:11.673Z,1.10
2018-08-12T13:02:40.241Z,0.80
2018-08-12T13:05:10.873Z,0.80
2018-08-12T13:07:39.513Z,0.90
2018-08-12T13:10:08.693Z,0.90
2018-08-12T13:12:37.257Z,0.90
2018-08-12T13:15:07.324Z,1.03
2018-08-12T13:17:35.997Z,1.30
2018-08-12T13:20:05.652Z,2.07
2018-08-12T13:22:34.215Z,1.00
2018-08-12T13:25:02.930Z,0.90
2018-08-12T13:27:31.422Z,0.90
2018-08-12T13:30:00.014Z,0.80
2018-08-12T13:32:28.586Z,0.90
2018-08-12T13:34:57.125Z,0.90
2018-08-12T13:37:25.625Z,0.97
2018-08-12T13:39:54.185Z,1.30
2018-08-12T13:42:22.744Z,0.90
2018-08-12T13:44:51.209Z,1.10
2018-08-12T13:47:19.705Z,0.70
2018-08-12T13:49:48.227Z,1.10
2018-08-12T13:52:16.672Z,0.80
2018-08-12T13:54:45.260Z,0.90
2018-08-12T13:57:13.860Z,0.90
2018-08-12T13:59:42.451Z,1.00
2018-08-12T14:02:10.882Z,0.90
2018-08-12T14:04:39.410Z,0.73
2018-08-12T14:07:08.162Z,0.77
2018-08-12T14:09:36.542Z,0.70
2018-08-12T14:12:05.082Z,0.90
2018-08-12T14:14:33.584Z,1.10
2018-08-12T14:17:02.231Z,1.00
2018-08-12T14:19:32.199Z,0.97
2018-08-12T14:22:00.706Z,0.80
2018-08-12T14:24:29.911Z,0.80
2018-08-12T14:26:58.525Z,1.13
2018-08-12T14:29:27.087Z,1.07
2018-08-12T14:31:55.736Z,1.10
2018-08-12T14:34:24.211Z,0.80
2018-08-12T14:36:52.773Z,1.00
2018-08-12T14:39:21.344Z,1.07
2018-08-12T14:41:49.915Z,1.07
2018-08-12T14:44:19.152Z,1.10
2018-08-12T14:46:47.727Z,0.83
2018-08-12T14:49:16.175Z,0.97
2018-08-12T14:51:44.564Z,0.90
2018-08-12T14:54:13.064Z,0.90
2018-08-12T14:56:41.671Z,0.80
2018-08-12T14:59:10.521Z,1.00
2018-08-12T15:01:39.702Z,0.90
2018-08-12T15:04:09.242Z,0.90
2018-08-12T15:06:38.062Z,1.00
2018-08-12T15:09:10.721Z,1.10
2018-08-12T15:11:40.179Z,0.90
2018-08-12T15:14:10.092Z,0.93
2018-08-12T15:16:39.777Z,0.90
2018-08-12T15:19:09.013Z,1.10
2018-08-12T15:21:37.620Z,0.90
2018-08-12T15:24:06.161Z,0.87
2018-08-12T15:26:34.702Z,0.90
2018-08-12T15:29:03.131Z,1.10
2018-08-12T15:31:31.604Z,0.97
2018-08-12T15:34:00.016Z,0.80
2018-08-12T15:36:28.403Z,1.10
2018-08-12T15:38:56.837Z,0.90
2018-08-12T15:41:25.257Z,0.90
2018-08-12T15:43:53.702Z,1.00
2018-08-12T15:46:22.156Z,1.00
2018-08-12T15:48:50.640Z,1.17
2018-08-12T15:51:19.137Z,1.10
2018-08-12T15:53:47.628Z,0.90
2018-08-12T15:56:16.056Z,1.00
2018-08-12T15:58:44.668Z,1.60
2018-08-12T16:01:13.107Z,1.00
2018-08-12T16:03:41.532Z,1.13
2018-08-12T16:06:10.051Z,1.40
2018-08-12T16:08:38.506Z,1.87
2018-08-12T16:11:06.963Z,1.77
2018-08-12T16:13:35.492Z,1.53
2018-08-12T16:16:04.041Z,2.33
2018-08-12T16:18:32.469Z,1.97
2018-08-12T16:21:00.915Z,1.80
2018-08-12T16:23:29.551Z,1.43
2018-08-12T16:25:58.076Z,1.30
2018-08-12T16:28:26.564Z,1.23
2018-08-12T16:30:55.192Z,1.40
2018-08-12T16:33:23.881Z,1.10
2018-08-12T16:35:52.669Z,1.30
2018-08-12T16:38:21.152Z,1.70
2018-08-12T16:40:49.698Z,1.50
2018-08-12T16:43:18.192Z,1.37
2018-08-12T16:45:46.647Z,1.30
2018-08-12T16:48:15.089Z,1.70
2018-08-12T16:50:43.511Z,1.97
2018-08-12T16:53:12.033Z,1.50
2018-08-12T16:55:40.521Z,1.43
2018-08-12T16:58:09.007Z,1.50
2018-08-12T17:00:37.632Z,1.40
2018-08-12T17:03:06.162Z,1.60
2018-08-12T17:05:34.690Z,1.80
2018-08-12T17:08:03.386Z,1.50
2018-08-12T17:10:31.972Z,1.30
2018-08-12T17:13:00.700Z,1.30
2018-08-12T17:15:29.525Z,1.70
2018-08-12T17:17:58.327Z,1.40
2018-08-12T17:20:26.840Z,1.50
2018-08-12T17:22:55.348Z,1.40
2018-08-12T17:25:23.906Z,1.23
2018-08-12T17:27:52.324Z,1.33
2018-08-12T17:30:20.814Z,1.30
2018-08-12T17:32:49.535Z,1.70
2018-08-12T17:35:18.704Z,1.87
2018-08-12T17:37:48.263Z,1.50
2018-08-12T17:40:17.455Z,1.40
2018-08-12T17:42:46.487Z,2.00
2018-08-12T17:45:15.148Z,1.50
2018-08-12T17:47:43.723Z,1.20
2018-08-12T17:50:14.614Z,1.80
2018-08-12T17:52:43.099Z,2.43
2018-08-12T17:55:11.592Z,5.00
2018-08-12T17:57:41.038Z,3.90
2018-08-12T18:00:13.472Z,2.33
2018-08-12T18:02:42.084Z,1.90
2018-08-12T18:05:10.747Z,1.60
2018-08-12T18:07:40.052Z,1.47
2018-08-12T18:10:08.628Z,2.37
2018-08-12T18:12:38.406Z,3.70
2018-08-12T18:15:08.220Z,3.00
2018-08-12T18:17:36.712Z,2.70
2018-08-12T18:20:05.809Z,1.70
2018-08-12T18:22:35.493Z,1.50
2018-08-12T18:25:05.830Z,1.50
2018-08-12T18:27:35.603Z,1.60
2018-08-12T18:30:06.270Z,1.87
2018-08-12T18:32:35.720Z,1.85
2018-08-12T18:35:05.841Z,1.80
2018-08-12T18:37:35.496Z,2.17
2018-08-12T18:40:05.813Z,2.27
2018-08-12T18:42:35.355Z,2.00
2018-08-12T18:45:04.923Z,2.23
2018-08-12T18:47:33.653Z,2.00
2018-08-12T18:50:04.284Z,2.00
2018-08-12T18:52:33.493Z,2.25
2018-08-12T18:55:02.558Z,2.20
2018-08-12T18:57:32.453Z,2.70
2018-08-12T19:00:02.314Z,2.50
2018-08-12T19:02:31.952Z,2.80
2018-08-12T19:05:01.804Z,2.90
2018-08-12T19:07:31.945Z,2.73
2018-08-12T19:10:01.932Z,2.70
2018-08-12T19:12:31.918Z,2.93
2018-08-12T19:15:01.879Z,2.57
2018-08-12T19:17:31.853Z,2.87
2018-08-12T19:20:02.063Z,2.37
2018-08-12T19:22:31.915Z,2.43
2018-08-12T19:25:01.316Z,3.23
2018-08-12T19:27:30.815Z,4.57
2018-08-12T19:30:01.238Z,3.27
2018-08-12T19:32:30.875Z,2.50
2018-08-12T19:35:00.374Z,2.43
2018-08-12T19:37:29.652Z,2.80
2018-08-12T19:39:58.552Z,2.53
2018-08-12T19:42:27.324Z,2.30
2018-08-12T19:44:56.434Z,2.43
2018-08-12T19:47:26.061Z,2.30
2018-08-12T19:54:52.001Z,2.33
2018-08-12T19:57:20.792Z,2.10
2018-08-12T20:04:45.618Z,2.30
2018-08-12T20:07:14.584Z,2.50
2018-08-12T20:09:43.449Z,2.70
2018-08-12T20:12:12.174Z,2.70
2018-08-12T20:14:40.701Z,2.40
2018-08-12T20:17:09.292Z,3.30
2018-08-12T20:19:38.052Z,2.60
2018-08-12T20:22:11.520Z,2.60
2018-08-12T20:24:41.081Z,2.70
2018-08-12T20:39:29.778Z,3.30
2018-08-12T20:41:59.043Z,3.30
2018-08-12T20:44:28.105Z,3.00
2018-08-12T20:46:57.190Z,2.97
2018-08-12T20:49:25.916Z,3.10
2018-08-12T20:51:54.600Z,3.30
2018-08-12T20:54:23.367Z,3.23
2018-08-12T20:56:51.875Z,2.90
2018-08-12T20:59:20.946Z,3.10
2018-08-12T21:01:49.845Z,3.50
2018-08-12T21:04:19.512Z,3.70
2018-08-12T21:06:48.734Z,3.50
2018-08-12T21:09:18.390Z,3.47
2018-08-12T21:11:48.019Z,3.40
2018-08-12T21:14:16.440Z,3.47
2018-08-12T21:16:44.945Z,3.60
2018-08-12T21:19:13.416Z,3.63
2018-08-12T21:21:41.915Z,4.70
2018-08-12T21:24:10.943Z,3.60
2018-08-12T21:26:39.407Z,3.40
2018-08-12T21:29:07.927Z,3.07
2018-08-12T21:31:36.445Z,3.20
2018-08-12T21:34:05.384Z,3.43
2018-08-12T21:36:34.068Z,3.20
2018-08-12T21:39:02.662Z,3.27
2018-08-12T21:41:31.112Z,3.87
2018-08-12T21:43:59.548Z,4.10
2018-08-12T21:46:28.174Z,3.27
2018-08-12T21:48:57.103Z,3.47
2018-08-12T21:51:26.672Z,3.30
2018-08-12T21:53:56.228Z,3.40
2018-08-12T21:56:24.732Z,3.20
2018-08-12T21:58:53.308Z,3.37
2018-08-12T22:01:21.801Z,3.80
2018-08-12T22:03:50.288Z,4.17
2018-08-12T22:06:18.712Z,3.80
2018-08-12T22:08:47.158Z,3.93
2018-08-12T22:11:15.569Z,3.90
2018-08-12T22:13:44.068Z,3.77
2018-08-12T22:16:12.470Z,4.00
2018-08-12T22:18:40.964Z,3.83
2018-08-12T22:21:09.365Z,4.07
2018-08-12T22:23:37.830Z,4.00
2018-08-12T22:26:06.366Z,3.80
2018-08-12T22:28:34.858Z,3.50
2018-08-12T22:31:03.300Z,3.10
2018-08-12T22:33:31.768Z,3.60
2018-08-12T22:36:00.364Z,3.50
2018-08-12T22:38:28.920Z,3.90
2018-08-12T22:40:57.383Z,4.40
2018-08-12T22:43:26.184Z,4.10
2018-08-12T22:45:54.693Z,3.90
2018-08-12T22:48:23.292Z,3.70
2018-08-12T22:50:51.821Z,4.30
2018-08-12T22:53:20.377Z,3.80
2018-08-12T22:55:48.820Z,3.73
2018-08-12T22:58:17.203Z,4.00
2018-08-12T23:00:45.682Z,4.20
2018-08-12T23:03:14.120Z,3.77
2018-08-12T23:05:42.598Z,3.67
2018-08-12T23:08:11.603Z,3.87
2018-08-12T23:10:40.833Z,3.90
2018-08-12T23:13:09.276Z,4.10
2018-08-12T23:16:20.390Z,3.97
2018-08-12T23:18:48.822Z,3.67
2018-08-12T23:21:18.161Z,3.97
2018-08-12T23:23:47.852Z,4.20
2018-08-12T23:26:18.372Z,3.93
2018-08-12T23:28:46.847Z,3.60
2018-08-12T23:31:15.256Z,4.00
2018-08-12T23:33:43.687Z,4.00
2018-08-12T23:36:14.605Z,4.43
2018-08-12T23:38:43.968Z,3.97
2018-08-12T23:41:12.722Z,3.97
2018-08-12T23:43:41.168Z,4.00
2018-08-12T23:46:10.317Z,3.63
2018-08-12T23:48:38.720Z,3.70
2018-08-12T23:51:07.447Z,3.77
2018-08-12T23:53:35.783Z,4.17
2018-08-12T23:56:04.427Z,4.07
2018-08-12T23:58:32.811Z,4.10
